createdAt,value
2024-02-24T00:01:55.040Z,22.20
2024-02-24T00:04:22.676Z,24.80
2024-02-24T00:06:50.257Z,24.00
2024-02-24T00:09:17.734Z,24.40
2024-02-24T00:11:45.569Z,25.50
2024-02-24T00:14:13.050Z,26.50
2024-02-24T00:16:40.622Z,27.10
2024-02-24T00:19:08.079Z,28.00
2024-02-24T00:21:35.611Z,27.50
2024-02-24T00:24:03.037Z,27.80
2024-02-24T00:26:30.284Z,27.90
2024-02-24T00:28:57.653Z,27.70
2024-02-24T00:31:25.005Z,30.00
2024-02-24T00:33:52.383Z,29.10
2024-02-24T00:36:20.103Z,28.10
2024-02-24T00:38:47.412Z,27.70
2024-02-24T00:41:14.894Z,29.40
2024-02-24T00:43:42.722Z,29.10
2024-02-24T00:46:10.797Z,29.40
2024-02-24T00:48:38.127Z,31.00
2024-02-24T00:51:05.717Z,30.50
2024-02-24T00:53:33.000Z,30.50
2024-02-24T00:56:00.499Z,30.60
2024-02-24T00:58:27.752Z,30.20
2024-02-24T01:00:55.144Z,29.80
2024-02-24T01:03:23.233Z,31.20
2024-02-24T01:05:51.002Z,31.10
2024-02-24T01:08:18.371Z,31.00
2024-02-24T01:10:46.113Z,30.50
2024-02-24T01:13:14.076Z,31.60
2024-02-24T01:15:41.802Z,29.80
2024-02-24T01:18:09.660Z,28.80
2024-02-24T01:20:37.672Z,30.30
2024-02-24T01:23:05.174Z,28.90
2024-02-24T01:25:32.680Z,28.60
2024-02-24T01:27:59.901Z,29.20
2024-02-24T01:30:27.929Z,29.40
2024-02-24T01:32:55.521Z,27.90
2024-02-24T01:35:23.338Z,28.90
2024-02-24T01:37:50.653Z,26.10
2024-02-24T01:40:18.260Z,27.50
2024-02-24T01:42:46.898Z,25.40
2024-02-24T01:45:15.727Z,26.00
2024-02-24T01:47:43.764Z,24.80
2024-02-24T01:50:13.324Z,25.60
2024-02-24T01:52:41.095Z,24.30
2024-02-24T01:55:10.400Z,23.70
2024-02-24T01:57:43.978Z,22.30
2024-02-24T02:00:13.949Z,23.30
2024-02-24T02:02:44.636Z,21.60
2024-02-24T02:05:14.923Z,21.60
2024-02-24T02:07:42.399Z,22.20
2024-02-24T02:10:10.978Z,21.80
2024-02-24T02:12:38.814Z,22.30
2024-02-24T02:15:07.607Z,21.50
2024-02-24T02:17:35.182Z,19.90
2024-02-24T02:20:06.186Z,21.20
2024-02-24T02:22:34.173Z,21.10
2024-02-24T02:25:01.541Z,21.50
2024-02-24T02:27:28.682Z,21.10
2024-02-24T02:29:56.139Z,21.40
2024-02-24T02:32:23.797Z,19.60
2024-02-24T02:34:51.473Z,19.90
2024-02-24T02:37:18.835Z,20.00
2024-02-24T02:39:45.970Z,19.70
2024-02-24T02:42:14.538Z,19.30
2024-02-24T02:44:42.283Z,19.00
2024-02-24T02:47:17.305Z,18.50
2024-02-24T02:49:47.391Z,18.50
2024-02-24T02:52:14.829Z,18.80
2024-02-24T02:54:42.084Z,18.80
2024-02-24T02:57:09.388Z,17.70
2024-02-24T02:59:39.504Z,18.60
2024-02-24T03:02:07.388Z,17.40
2024-02-24T03:04:34.690Z,18.50
2024-02-24T03:07:01.974Z,17.80
2024-02-24T03:09:29.249Z,19.10
2024-02-24T03:11:57.143Z,18.40
2024-02-24T03:14:25.048Z,20.60
2024-02-24T03:16:55.013Z,18.80
2024-02-24T03:19:22.447Z,19.10
2024-02-24T03:21:50.261Z,18.80
2024-02-24T03:24:17.714Z,19.30
2024-02-24T03:26:45.075Z,19.40
2024-02-24T03:29:12.348Z,19.40
2024-02-24T03:31:39.609Z,20.00
2024-02-24T03:34:08.742Z,19.60
2024-02-24T03:36:36.238Z,19.00
2024-02-24T03:39:03.524Z,20.00
2024-02-24T03:41:34.123Z,19.30
2024-02-24T03:44:02.190Z,19.40
2024-02-24T03:46:29.547Z,19.40
2024-02-24T03:48:56.779Z,19.60
2024-02-24T03:51:24.170Z,19.30
2024-02-24T03:53:51.570Z,19.70
2024-02-24T03:56:18.778Z,19.60
2024-02-24T03:58:46.624Z,19.30
2024-02-24T04:01:14.092Z,19.60
2024-02-24T04:03:41.489Z,18.60
2024-02-24T04:06:10.039Z,19.50
2024-02-24T04:08:37.833Z,19.50
2024-02-24T04:11:05.793Z,19.30
2024-02-24T04:13:33.325Z,18.40
2024-02-24T04:16:01.102Z,18.90
2024-02-24T04:18:28.515Z,18.20
2024-02-24T04:20:55.928Z,19.10
2024-02-24T04:23:23.776Z,18.80
2024-02-24T04:25:51.054Z,19.10
2024-02-24T04:28:20.398Z,18.20
2024-02-24T04:30:49.032Z,19.30
2024-02-24T04:33:16.710Z,18.60
2024-02-24T04:35:44.191Z,18.80
2024-02-24T04:38:11.606Z,18.00
2024-02-24T04:40:39.350Z,19.00
2024-02-24T04:43:06.962Z,19.70
2024-02-24T04:45:34.274Z,18.90
2024-02-24T04:48:01.811Z,18.70
2024-02-24T04:50:29.576Z,19.20
2024-02-24T04:52:56.970Z,18.20
2024-02-24T04:55:24.296Z,18.90
2024-02-24T04:57:51.554Z,18.20
2024-02-24T05:00:20.024Z,19.80
2024-02-24T05:02:47.557Z,19.70
2024-02-24T05:05:15.441Z,19.30
2024-02-24T05:07:43.225Z,19.40
2024-02-24T05:10:11.542Z,18.20
2024-02-24T05:12:39.224Z,18.70
2024-02-24T05:15:07.288Z,18.70
2024-02-24T05:17:34.808Z,18.10
2024-02-24T05:20:02.111Z,19.00
2024-02-24T05:22:29.396Z,17.90
2024-02-24T05:24:56.661Z,18.20
2024-02-24T05:27:23.801Z,18.00
2024-02-24T05:29:51.194Z,17.50
2024-02-24T05:32:18.972Z,17.40
2024-02-24T05:34:46.632Z,17.40
2024-02-24T05:37:13.951Z,16.90
2024-02-24T05:39:41.297Z,17.40
2024-02-24T05:42:09.311Z,17.90
2024-02-24T05:44:36.633Z,17.20
2024-02-24T05:47:05.223Z,17.00
2024-02-24T05:49:32.702Z,16.70
2024-02-24T05:52:00.020Z,16.20
2024-02-24T05:54:27.374Z,16.80
2024-02-24T05:56:54.544Z,15.30
2024-02-24T05:59:22.029Z,15.40
2024-02-24T06:01:49.234Z,15.60
2024-02-24T06:04:17.345Z,15.80
2024-02-24T06:06:47.720Z,15.70
2024-02-24T06:09:15.210Z,15.30
2024-02-24T06:11:42.554Z,14.30
2024-02-24T06:14:09.938Z,14.10
2024-02-24T06:16:37.257Z,14.30
2024-02-24T06:19:04.544Z,13.80
2024-02-24T06:21:34.168Z,13.90
2024-02-24T06:24:01.481Z,12.70
2024-02-24T06:26:28.656Z,13.40
2024-02-24T06:28:57.409Z,13.00
2024-02-24T06:31:24.573Z,13.50
2024-02-24T06:33:52.040Z,12.90
2024-02-24T06:36:19.303Z,13.20
2024-02-24T06:38:46.532Z,12.90
2024-02-24T06:41:14.187Z,12.60
2024-02-24T06:43:41.435Z,12.60
2024-02-24T06:46:08.722Z,12.30
2024-02-24T06:48:36.135Z,12.50
2024-02-24T06:51:03.501Z,12.50
2024-02-24T06:53:31.186Z,12.70
2024-02-24T06:55:58.416Z,11.80
2024-02-24T06:58:25.569Z,12.40
2024-02-24T07:00:53.064Z,12.10
2024-02-24T07:03:21.088Z,12.10
2024-02-24T07:05:48.660Z,12.30
2024-02-24T07:08:16.617Z,12.80
2024-02-24T07:10:44.063Z,12.70
2024-02-24T07:13:12.026Z,11.80
2024-02-24T07:15:39.994Z,12.30
2024-02-24T07:18:08.033Z,12.10
2024-02-24T07:20:35.493Z,13.00
2024-02-24T07:23:02.683Z,12.50
2024-02-24T07:25:30.160Z,11.40
2024-02-24T07:27:58.144Z,11.80
2024-02-24T07:30:25.584Z,12.60
2024-02-24T07:32:53.059Z,11.20
2024-02-24T07:35:20.368Z,12.70
2024-02-24T07:37:47.855Z,12.10
2024-02-24T07:40:16.372Z,11.90
2024-02-24T07:42:43.686Z,11.70
2024-02-24T07:45:12.287Z,11.40
2024-02-24T07:47:39.537Z,11.90
2024-02-24T07:50:08.791Z,11.00
2024-02-24T07:52:36.418Z,12.30
2024-02-24T07:55:04.314Z,12.90
2024-02-24T07:57:31.567Z,11.10
2024-02-24T07:59:59.283Z,11.60
2024-02-24T08:02:26.833Z,10.90
2024-02-24T08:04:54.310Z,11.10
2024-02-24T08:07:21.792Z,11.30
2024-02-24T08:09:49.208Z,10.70
2024-02-24T08:12:16.609Z,10.30
2024-02-24T08:14:44.196Z,10.70
2024-02-24T08:17:13.383Z,11.00
2024-02-24T08:19:40.819Z,11.50
2024-02-24T08:22:08.167Z,10.50
2024-02-24T08:24:35.503Z,11.50
2024-02-24T08:27:02.813Z,11.10
2024-02-24T08:29:33.123Z,11.20
2024-02-24T08:32:00.788Z,11.70
2024-02-24T08:34:28.252Z,11.30
2024-02-24T08:36:55.646Z,10.80
2024-02-24T08:39:23.001Z,10.30
2024-02-24T08:41:50.335Z,11.30
2024-02-24T08:44:19.098Z,11.10
2024-02-24T08:46:46.301Z,11.40
2024-02-24T08:49:13.655Z,10.70
2024-02-24T08:51:41.573Z,11.10
2024-02-24T08:54:09.114Z,10.40
2024-02-24T08:56:36.469Z,10.40
2024-02-24T08:59:03.910Z,11.00
2024-02-24T09:01:31.151Z,11.50
2024-02-24T09:04:00.933Z,11.20
2024-02-24T09:06:28.299Z,10.60
2024-02-24T09:08:55.605Z,10.00
2024-02-24T09:11:23.267Z,10.70
2024-02-24T09:13:51.197Z,10.60
2024-02-24T09:16:20.281Z,10.50
2024-02-24T09:18:47.732Z,10.20
2024-02-24T09:21:15.126Z,10.40
2024-02-24T09:23:42.537Z,10.00
2024-02-24T09:26:10.062Z,10.20
2024-02-24T09:28:37.573Z,10.50
2024-02-24T09:31:04.932Z,10.60
2024-02-24T09:33:32.331Z,9.70
2024-02-24T09:35:59.755Z,10.00
2024-02-24T09:38:27.438Z,10.20
2024-02-24T09:40:54.967Z,10.80
2024-02-24T09:43:22.438Z,10.20
2024-02-24T09:45:50.704Z,10.40
2024-02-24T09:48:19.472Z,10.50
2024-02-24T09:50:47.064Z,10.10
2024-02-24T09:53:14.454Z,9.80
2024-02-24T09:55:41.692Z,10.00
2024-02-24T09:58:15.980Z,9.60
2024-02-24T10:00:45.225Z,9.30
2024-02-24T10:03:13.291Z,10.10
2024-02-24T10:05:41.350Z,8.80
2024-02-24T10:08:11.897Z,8.80
2024-02-24T10:10:40.468Z,8.10
2024-02-24T10:13:07.883Z,8.00
2024-02-24T10:15:36.989Z,7.80
2024-02-24T10:18:05.427Z,6.90
2024-02-24T10:20:33.081Z,7.10
2024-02-24T10:23:00.682Z,6.20
2024-02-24T10:25:28.109Z,6.50
2024-02-24T10:27:56.536Z,5.50
2024-02-24T10:30:25.485Z,5.70
2024-02-24T10:32:57.623Z,5.30
2024-02-24T10:35:25.470Z,5.50
2024-02-24T10:38:10.999Z,5.10
2024-02-24T10:40:44.638Z,4.30
2024-02-24T10:43:13.939Z,4.50
2024-02-24T10:45:41.410Z,3.00
2024-02-24T10:48:10.158Z,2.90
2024-02-24T10:50:37.901Z,2.50
2024-02-24T10:53:06.586Z,2.80
2024-02-24T10:55:37.409Z,2.30
2024-02-24T10:58:04.646Z,1.50
2024-02-24T11:00:37.262Z,1.60
2024-02-24T11:03:06.202Z,1.60
2024-02-24T11:05:35.486Z,1.70
2024-02-24T11:08:04.964Z,1.70
2024-02-24T11:10:36.765Z,1.70
2024-02-24T11:13:04.878Z,1.60
2024-02-24T11:15:32.387Z,2.00
2024-02-24T11:18:00.502Z,1.60
2024-02-24T11:20:59.765Z,1.70
2024-02-24T11:23:33.251Z,1.90
2024-02-24T11:26:33.138Z,3.30
2024-02-24T11:29:08.910Z,4.10
2024-02-24T11:31:38.021Z,3.70
2024-02-24T11:34:09.724Z,3.60
2024-02-24T11:36:39.991Z,3.80
2024-02-24T11:39:09.862Z,3.30
2024-02-24T11:41:38.133Z,2.60
2024-02-24T11:44:05.897Z,2.70
2024-02-24T11:46:34.781Z,2.40
2024-02-24T11:49:02.630Z,2.20
2024-02-24T11:51:30.025Z,2.30
2024-02-24T11:53:57.682Z,2.60
2024-02-24T11:56:27.157Z,2.20
2024-02-24T11:58:56.661Z,2.20
2024-02-24T12:01:24.552Z,2.90
2024-02-24T12:03:56.840Z,2.00
2024-02-24T12:06:25.950Z,2.10
2024-02-24T12:08:54.454Z,1.90
2024-02-24T12:11:22.787Z,1.90
2024-02-24T12:13:50.305Z,1.80
2024-02-24T12:16:18.066Z,1.90
2024-02-24T12:18:46.555Z,2.20
2024-02-24T12:21:15.279Z,2.20
2024-02-24T12:23:43.465Z,2.10
2024-02-24T12:26:20.108Z,2.00
2024-02-24T12:28:48.923Z,2.00
2024-02-24T12:31:17.387Z,2.00
2024-02-24T12:33:46.850Z,2.10
2024-02-24T12:36:17.139Z,2.30
2024-02-24T12:38:45.440Z,2.20
2024-02-24T12:41:14.621Z,2.30
2024-02-24T12:43:43.136Z,2.40
2024-02-24T12:46:11.131Z,2.50
2024-02-24T12:48:42.091Z,2.50
2024-02-24T12:51:11.097Z,2.20
2024-02-24T12:53:38.588Z,2.70
2024-02-24T12:56:06.459Z,2.80
2024-02-24T12:58:35.363Z,2.90
2024-02-24T13:01:02.623Z,3.20
2024-02-24T13:03:29.795Z,3.60
2024-02-24T13:05:57.220Z,3.30
2024-02-24T13:08:24.899Z,3.40
2024-02-24T13:10:52.373Z,3.70
2024-02-24T13:13:19.564Z,3.40
2024-02-24T13:15:47.721Z,3.70
2024-02-24T13:18:15.064Z,3.90
2024-02-24T13:20:42.420Z,4.20
2024-02-24T13:23:09.565Z,3.90
2024-02-24T13:25:37.304Z,4.20
2024-02-24T13:28:05.096Z,4.10
2024-02-24T13:30:32.409Z,4.30
2024-02-24T13:33:00.068Z,4.20
2024-02-24T13:35:29.552Z,4.20
2024-02-24T13:37:56.766Z,4.70
2024-02-24T13:40:25.616Z,4.40
2024-02-24T13:42:52.930Z,4.50
2024-02-24T13:45:20.644Z,4.30
2024-02-24T13:47:50.996Z,4.60
2024-02-24T13:50:24.046Z,4.30
2024-02-24T13:52:51.337Z,4.60
2024-02-24T13:55:19.020Z,5.30
2024-02-24T13:57:46.731Z,4.90
2024-02-24T14:00:16.112Z,4.30
2024-02-24T14:02:44.296Z,3.90
2024-02-24T14:05:13.832Z,4.80
2024-02-24T14:07:41.309Z,4.30
2024-02-24T14:10:10.103Z,4.00
2024-02-24T14:12:37.485Z,3.80
2024-02-24T14:15:05.165Z,4.20
2024-02-24T14:17:32.607Z,3.90
2024-02-24T14:20:05.549Z,4.00
2024-02-24T14:22:39.134Z,4.00
2024-02-24T14:25:07.967Z,3.90
2024-02-24T14:27:35.711Z,3.30
2024-02-24T14:30:03.499Z,3.70
2024-02-24T14:32:31.017Z,3.70
2024-02-24T14:34:58.861Z,3.70
2024-02-24T14:37:26.158Z,4.00
2024-02-24T14:39:53.308Z,4.20
2024-02-24T14:42:20.444Z,4.40
2024-02-24T14:44:47.812Z,3.80
2024-02-24T14:47:15.087Z,3.90
2024-02-24T14:49:42.781Z,4.10
2024-02-24T14:52:11.281Z,4.40
2024-02-24T14:54:42.211Z,4.10
2024-02-24T14:57:13.703Z,4.50
2024-02-24T14:59:42.275Z,4.30
2024-02-24T15:02:10.474Z,4.70
2024-02-24T15:04:38.430Z,5.20
2024-02-24T15:07:06.595Z,5.40
2024-02-24T15:09:34.467Z,5.40
2024-02-24T15:12:02.022Z,5.40
2024-02-24T15:14:29.687Z,5.10
2024-02-24T15:16:58.242Z,5.60
2024-02-24T15:19:25.447Z,5.20
2024-02-24T15:21:53.057Z,4.90
2024-02-24T15:24:21.176Z,5.40
2024-02-24T15:26:48.814Z,5.10
2024-02-24T15:29:18.392Z,5.50
2024-02-24T15:31:46.497Z,5.10
2024-02-24T15:34:14.688Z,5.50
2024-02-24T15:36:44.692Z,5.50
2024-02-24T15:39:12.427Z,6.00
2024-02-24T15:41:40.057Z,5.90
2024-02-24T15:44:08.091Z,6.20
2024-02-24T15:46:36.106Z,5.90
2024-02-24T15:49:03.675Z,5.50
2024-02-24T15:51:31.302Z,6.30
2024-02-24T15:53:58.821Z,6.20
2024-02-24T15:56:26.505Z,6.80
2024-02-24T15:58:53.721Z,5.90
2024-02-24T16:01:23.621Z,6.50
2024-02-24T16:03:51.022Z,6.80
2024-02-24T16:06:20.275Z,6.30
2024-02-24T16:08:47.810Z,7.00
2024-02-24T16:11:15.712Z,6.90
2024-02-24T16:13:43.112Z,7.80
2024-02-24T16:16:14.320Z,7.80
2024-02-24T16:18:42.977Z,8.30
2024-02-24T16:21:10.837Z,7.90
2024-02-24T16:23:38.779Z,8.70
2024-02-24T16:26:07.046Z,8.30
2024-02-24T16:28:34.922Z,8.50
2024-02-24T16:31:02.667Z,8.70
2024-02-24T16:33:30.500Z,8.80
2024-02-24T16:35:58.018Z,9.20
2024-02-24T16:38:25.768Z,10.10
2024-02-24T16:40:53.631Z,10.30
2024-02-24T16:43:21.167Z,10.40
2024-02-24T16:45:48.869Z,10.40
2024-02-24T16:48:19.635Z,11.50
2024-02-24T16:50:47.376Z,10.70
2024-02-24T16:53:14.718Z,10.50
2024-02-24T16:55:41.986Z,10.30
2024-02-24T16:58:09.613Z,11.20
2024-02-24T17:00:37.002Z,11.10
2024-02-24T17:03:05.011Z,12.80
2024-02-24T17:05:32.362Z,15.90
2024-02-24T17:07:59.787Z,13.40
2024-02-24T17:10:27.400Z,13.10
2024-02-24T17:12:55.040Z,14.90
2024-02-24T17:15:22.939Z,14.80
2024-02-24T17:17:50.611Z,14.50
2024-02-24T17:20:20.316Z,13.00
2024-02-24T17:22:47.862Z,13.00
2024-02-24T17:25:16.869Z,15.00
2024-02-24T17:27:46.718Z,15.10
2024-02-24T17:30:18.761Z,14.80
2024-02-24T17:32:46.219Z,15.10
2024-02-24T17:35:14.661Z,14.20
2024-02-24T17:37:42.986Z,13.80
2024-02-24T17:40:12.898Z,14.60
2024-02-24T17:42:40.324Z,14.10
2024-02-24T17:45:09.700Z,13.30
2024-02-24T17:47:37.017Z,13.60
2024-02-24T17:50:05.156Z,13.90
2024-02-24T17:52:32.818Z,14.00
2024-02-24T17:55:00.225Z,14.30
2024-02-24T17:57:27.942Z,14.20
2024-02-24T17:59:56.054Z,14.20
2024-02-24T18:02:23.958Z,13.80
2024-02-24T18:04:51.570Z,13.50
2024-02-24T18:07:19.242Z,13.90
2024-02-24T18:09:46.498Z,14.10
2024-02-24T18:12:13.999Z,14.50
2024-02-24T18:14:42.807Z,15.20
2024-02-24T18:17:10.872Z,15.80
2024-02-24T18:19:38.590Z,16.80
2024-02-24T18:22:06.180Z,15.60
2024-02-24T18:24:33.558Z,14.70
2024-02-24T18:27:01.047Z,14.60
2024-02-24T18:29:28.805Z,15.60
2024-02-24T18:31:56.240Z,21.00
2024-02-24T18:34:23.754Z,37.70
2024-02-24T18:36:51.887Z,34.50
2024-02-24T18:39:19.536Z,25.70
2024-02-24T18:41:46.932Z,36.20
2024-02-24T18:44:16.145Z,39.90
2024-02-24T18:46:43.848Z,32.10
2024-02-24T18:49:11.688Z,22.80
2024-02-24T18:51:39.140Z,25.80
2024-02-24T18:54:07.814Z,25.60
2024-02-24T18:56:36.613Z,20.00
2024-02-24T18:59:06.253Z,18.90
2024-02-24T19:01:33.631Z,18.10
2024-02-24T19:04:01.041Z,16.60
2024-02-24T19:06:28.546Z,16.20
2024-02-24T19:08:56.163Z,16.20
2024-02-24T19:11:23.622Z,17.80
2024-02-24T19:13:51.132Z,17.20
2024-02-24T19:16:18.480Z,18.50
2024-02-24T19:18:46.192Z,17.40
2024-02-24T19:21:14.118Z,17.80
2024-02-24T19:23:41.596Z,17.10
2024-02-24T19:26:09.821Z,17.50
2024-02-24T19:28:37.171Z,17.10
2024-02-24T19:31:04.551Z,19.00
2024-02-24T19:33:32.059Z,17.80
2024-02-24T19:35:59.792Z,19.70
2024-02-24T19:38:27.664Z,18.30
2024-02-24T19:40:55.044Z,17.60
2024-02-24T19:43:22.333Z,18.20
2024-02-24T19:45:49.628Z,18.10
2024-02-24T19:48:17.071Z,18.90
2024-02-24T19:50:48.980Z,18.60
2024-02-24T19:53:16.515Z,18.50
2024-02-24T19:55:43.760Z,19.10
2024-02-24T19:58:21.030Z,19.20
2024-02-24T20:00:56.821Z,19.00
2024-02-24T20:03:24.372Z,20.80
2024-02-24T20:05:51.885Z,22.50
2024-02-24T20:08:19.373Z,23.90
2024-02-24T20:10:47.045Z,22.70
2024-02-24T20:13:14.347Z,21.90
2024-02-24T20:15:41.598Z,22.90
2024-02-24T20:18:09.436Z,24.50
2024-02-24T20:20:36.693Z,24.70
2024-02-24T20:23:03.908Z,24.20
2024-02-24T20:25:31.248Z,25.80
2024-02-24T20:27:58.379Z,26.00
2024-02-24T20:30:25.524Z,24.50
2024-02-24T20:32:54.173Z,24.30
2024-02-24T20:35:22.081Z,23.40
2024-02-24T20:37:49.740Z,24.30
2024-02-24T20:40:17.642Z,23.60
2024-02-24T20:42:45.074Z,22.60
2024-02-24T20:45:13.821Z,22.10
2024-02-24T20:47:41.641Z,20.30
2024-02-24T20:50:10.676Z,19.80
2024-02-24T20:52:38.230Z,21.20
2024-02-24T20:55:06.080Z,21.00
2024-02-24T20:57:33.816Z,20.90
2024-02-24T21:00:03.783Z,21.50
2024-02-24T21:02:31.798Z,19.90
2024-02-24T21:04:59.148Z,20.80
2024-02-24T21:07:26.916Z,21.20
2024-02-24T21:09:54.250Z,20.50
2024-02-24T21:12:22.483Z,20.70
2024-02-24T21:14:49.849Z,20.40
2024-02-24T21:17:17.383Z,19.90
2024-02-24T21:19:44.984Z,21.50
2024-02-24T21:22:12.396Z,22.40
2024-02-24T21:24:39.569Z,22.90
2024-02-24T21:27:07.438Z,23.90
2024-02-24T21:29:35.339Z,22.40
2024-02-24T21:32:02.753Z,24.40
2024-02-24T21:34:31.555Z,23.60
2024-02-24T21:36:59.087Z,22.40
2024-02-24T21:39:26.625Z,21.70
2024-02-24T21:41:53.913Z,19.00
2024-02-24T21:44:21.388Z,21.90
2024-02-24T21:46:48.790Z,21.70
2024-02-24T21:49:19.003Z,21.10
2024-02-24T21:51:46.541Z,20.60
2024-02-24T21:54:15.980Z,20.30
2024-02-24T21:56:45.528Z,21.70
2024-02-24T21:59:12.752Z,21.10
2024-02-24T22:01:40.025Z,21.20
2024-02-24T22:04:08.020Z,20.80
2024-02-24T22:06:36.530Z,20.70
2024-02-24T22:09:04.946Z,20.50
2024-02-24T22:11:35.153Z,20.70
2024-02-24T22:14:02.576Z,20.70
2024-02-24T22:16:30.302Z,21.10
2024-02-24T22:18:58.011Z,20.80
2024-02-24T22:21:27.919Z,21.40
2024-02-24T22:23:55.333Z,23.70
2024-02-24T22:26:25.201Z,24.10
2024-02-24T22:28:53.711Z,24.90
2024-02-24T22:31:21.957Z,26.00
2024-02-24T22:33:49.301Z,26.90
2024-02-24T22:36:16.895Z,28.60
2024-02-24T22:38:44.693Z,27.70
2024-02-24T22:41:12.003Z,27.70
2024-02-24T22:43:39.400Z,29.70
2024-02-24T22:46:08.714Z,29.40
2024-02-24T22:48:36.083Z,30.70
2024-02-24T22:51:03.533Z,30.80
2024-02-24T22:53:31.219Z,32.20
2024-02-24T22:55:58.378Z,32.30
2024-02-24T22:58:25.706Z,34.40
2024-02-24T23:00:53.202Z,34.20
2024-02-24T23:03:23.418Z,35.60
2024-02-24T23:05:51.650Z,37.20
2024-02-24T23:08:18.956Z,36.50
2024-02-24T23:10:46.219Z,35.90
2024-02-24T23:13:13.568Z,37.90
2024-02-24T23:15:40.821Z,36.50
2024-02-24T23:18:09.403Z,37.10
2024-02-24T23:20:36.755Z,37.40
2024-02-24T23:23:04.320Z,36.00
2024-02-24T23:25:33.088Z,36.60
2024-02-24T23:28:00.260Z,37.20
2024-02-24T23:30:27.709Z,36.50
2024-02-24T23:32:55.193Z,35.80
2024-02-24T23:35:22.672Z,36.50
2024-02-24T23:37:49.919Z,34.00
2024-02-24T23:40:17.963Z,35.30
2024-02-24T23:42:46.042Z,35.40
2024-02-24T23:45:14.015Z,32.70
2024-02-24T23:47:42.665Z,32.00
2024-02-24T23:50:11.295Z,31.20
2024-02-24T23:52:38.820Z,31.40
2024-02-24T23:55:08.571Z,31.00
2024-02-24T23:57:35.718Z,29.30
